createdAt,value
2019-06-26T00:00:18.672Z,46.33
2019-06-26T00:02:44.897Z,44.15
2019-06-26T00:05:10.983Z,46.88
2019-06-26T00:07:36.841Z,48.30
2019-06-26T00:10:04.318Z,46.60
2019-06-26T00:12:30.271Z,49.88
2019-06-26T00:14:56.086Z,54.85
2019-06-26T00:17:21.950Z,53.40
2019-06-26T00:19:47.813Z,55.43
2019-06-26T00:22:13.688Z,57.60
2019-06-26T00:24:39.571Z,54.10
2019-06-26T00:27:05.430Z,55.55
2019-06-26T00:29:31.620Z,57.88
2019-06-26T00:31:57.578Z,58.92
2019-06-26T00:34:23.478Z,53.85
2019-06-26T00:36:49.316Z,55.00
2019-06-26T00:39:15.166Z,50.10
2019-06-26T00:41:41.041Z,54.42
2019-06-26T00:44:06.976Z,56.20
2019-06-26T00:46:32.850Z,58.45
2019-06-26T00:48:58.761Z,52.75
2019-06-26T00:51:24.622Z,55.38
2019-06-26T00:53:50.481Z,51.65
2019-06-26T00:56:16.354Z,48.70
2019-06-26T00:58:42.230Z,52.88
2019-06-26T01:01:08.080Z,54.23
2019-06-26T01:03:33.927Z,51.65
2019-06-26T01:05:59.878Z,51.90
2019-06-26T01:08:25.745Z,52.40
2019-06-26T01:10:51.606Z,53.13
2019-06-26T01:13:17.453Z,52.70
2019-06-26T01:15:43.541Z,52.17
2019-06-26T01:18:09.519Z,51.55
2019-06-26T01:20:35.370Z,48.73
2019-06-26T01:23:01.224Z,46.00
2019-06-26T01:25:27.090Z,50.20
2019-06-26T01:27:53.760Z,44.60
2019-06-26T01:30:19.995Z,51.60
2019-06-26T01:32:45.879Z,45.98
2019-06-26T01:35:11.958Z,47.67
2019-06-26T01:37:37.813Z,47.88
2019-06-26T01:40:07.352Z,50.85
2019-06-26T01:42:33.196Z,48.63
2019-06-26T01:44:59.058Z,49.35
2019-06-26T01:47:24.927Z,43.15
2019-06-26T01:49:50.774Z,45.55
2019-06-26T01:52:16.638Z,43.90
2019-06-26T01:54:42.501Z,46.48
2019-06-26T01:57:08.363Z,46.25
2019-06-26T01:59:34.253Z,45.10
2019-06-26T02:02:00.115Z,42.55
2019-06-26T02:04:25.990Z,42.23
2019-06-26T02:06:51.847Z,42.20
2019-06-26T02:09:17.713Z,40.05
2019-06-26T02:11:43.554Z,40.55
2019-06-26T02:14:09.412Z,42.33
2019-06-26T02:16:35.278Z,43.87
2019-06-26T02:19:03.038Z,41.18
2019-06-26T02:21:28.898Z,40.78
2019-06-26T02:23:54.753Z,42.65
2019-06-26T02:26:20.689Z,44.83
2019-06-26T02:28:46.670Z,46.48
2019-06-26T02:31:12.551Z,51.02
2019-06-26T02:33:38.416Z,44.15
2019-06-26T02:36:04.330Z,50.67
2019-06-26T02:38:30.224Z,49.08
2019-06-26T02:40:56.065Z,49.63
2019-06-26T02:43:22.028Z,54.10
2019-06-26T02:45:47.917Z,50.17
2019-06-26T02:48:13.771Z,55.95
2019-06-26T02:50:39.614Z,52.43
2019-06-26T02:53:05.490Z,53.30
2019-06-26T02:55:31.341Z,49.30
2019-06-26T02:57:57.214Z,53.23
2019-06-26T03:00:23.081Z,54.85
2019-06-26T03:02:48.969Z,53.00
2019-06-26T03:05:14.828Z,56.75
2019-06-26T03:07:40.752Z,58.40
2019-06-26T03:10:07.574Z,60.03
2019-06-26T03:12:34.062Z,59.73
2019-06-26T03:15:08.858Z,62.50
2019-06-26T03:17:27.730Z,60.90
2019-06-26T03:19:53.606Z,57.43
2019-06-26T03:22:19.441Z,59.18
2019-06-26T03:24:45.307Z,59.80
2019-06-26T03:27:11.160Z,58.28
2019-06-26T03:29:37.014Z,60.52
2019-06-26T03:32:02.882Z,60.35
2019-06-26T03:34:28.784Z,53.87
2019-06-26T03:36:54.663Z,57.20
2019-06-26T03:39:20.647Z,60.50
2019-06-26T03:41:46.566Z,59.90
2019-06-26T03:44:12.543Z,59.50
2019-06-26T03:46:38.422Z,60.23
2019-06-26T03:49:04.277Z,56.53
2019-06-26T03:51:30.145Z,56.58
2019-06-26T03:53:55.999Z,56.90
2019-06-26T03:56:21.871Z,54.83
2019-06-26T03:58:47.728Z,59.15
2019-06-26T04:01:13.625Z,57.20
2019-06-26T04:03:39.450Z,57.70
2019-06-26T04:06:05.293Z,55.30
2019-06-26T04:08:31.143Z,56.20
2019-06-26T04:10:57.000Z,59.08
2019-06-26T04:13:22.857Z,55.23
2019-06-26T04:15:50.914Z,60.12
2019-06-26T04:18:16.486Z,56.40
2019-06-26T04:20:42.339Z,56.42
2019-06-26T04:23:08.263Z,57.33
2019-06-26T04:25:34.208Z,58.52
2019-06-26T04:28:00.004Z,54.23
2019-06-26T04:30:26.389Z,54.90
2019-06-26T04:32:52.355Z,55.23
2019-06-26T04:35:18.226Z,57.53
2019-06-26T04:37:44.129Z,56.08
2019-06-26T04:40:10.294Z,52.98
2019-06-26T04:42:36.124Z,55.45
2019-06-26T04:45:04.381Z,57.27
2019-06-26T04:47:30.245Z,55.70
2019-06-26T04:49:56.097Z,56.50
2019-06-26T04:52:21.991Z,54.27
2019-06-26T04:54:47.854Z,53.65
2019-06-26T04:57:13.699Z,53.68
2019-06-26T04:59:39.746Z,57.78
2019-06-26T05:02:05.626Z,55.20
2019-06-26T05:04:31.487Z,50.52
2019-06-26T05:06:57.341Z,48.75
2019-06-26T05:09:23.198Z,53.40
2019-06-26T05:11:49.053Z,51.50
2019-06-26T05:14:14.926Z,50.92
2019-06-26T05:16:40.784Z,53.58
2019-06-26T05:19:06.628Z,50.23
2019-06-26T05:21:32.481Z,52.05
2019-06-26T05:23:58.329Z,46.53
2019-06-26T05:26:24.203Z,52.45
2019-06-26T05:28:50.078Z,48.60
2019-06-26T05:31:15.933Z,49.83
2019-06-26T05:33:41.853Z,47.98
2019-06-26T05:36:07.785Z,47.13
2019-06-26T05:38:33.652Z,47.33
2019-06-26T05:40:59.605Z,47.40
2019-06-26T05:43:25.528Z,47.48
2019-06-26T05:45:51.382Z,46.30
2019-06-26T05:48:17.347Z,42.95
2019-06-26T05:50:43.363Z,42.13
2019-06-26T05:53:09.203Z,42.17
2019-06-26T05:55:35.059Z,44.40
2019-06-26T05:58:00.901Z,41.85
2019-06-26T06:00:26.775Z,41.95
2019-06-26T06:02:53.990Z,43.48
2019-06-26T06:05:20.115Z,39.75
2019-06-26T06:07:45.983Z,38.30
2019-06-26T06:10:13.356Z,37.53
2019-06-26T06:12:39.226Z,39.10
2019-06-26T06:15:05.598Z,39.13
2019-06-26T06:17:31.456Z,38.05
2019-06-26T06:19:57.301Z,34.10
2019-06-26T06:22:23.178Z,38.15
2019-06-26T06:24:49.015Z,33.00
2019-06-26T06:27:14.892Z,34.15
2019-06-26T06:29:40.756Z,36.50
2019-06-26T06:32:06.607Z,36.23
2019-06-26T06:34:32.471Z,35.17
2019-06-26T06:36:59.228Z,35.17
2019-06-26T06:39:25.150Z,34.75
2019-06-26T06:41:51.010Z,32.78
2019-06-26T06:44:16.880Z,33.08
2019-06-26T06:46:42.733Z,30.23
2019-06-26T06:49:08.693Z,30.97
2019-06-26T06:51:34.560Z,29.60
2019-06-26T06:54:00.409Z,28.30
2019-06-26T06:56:26.259Z,28.12
2019-06-26T06:58:52.145Z,24.57
2019-06-26T07:01:17.982Z,25.88
2019-06-26T07:03:43.846Z,26.40
2019-06-26T07:06:09.705Z,28.42
2019-06-26T07:08:35.561Z,27.62
2019-06-26T07:11:01.512Z,24.77
2019-06-26T07:13:27.506Z,25.95
2019-06-26T07:15:53.411Z,24.57
2019-06-26T07:18:19.279Z,27.17
2019-06-26T07:20:45.136Z,27.10
2019-06-26T07:23:11.010Z,26.27
2019-06-26T07:25:36.937Z,23.70
2019-06-26T07:28:02.962Z,25.43
2019-06-26T07:30:28.812Z,25.10
2019-06-26T07:32:54.661Z,26.55
2019-06-26T07:35:20.540Z,26.87
2019-06-26T07:37:46.470Z,27.07
2019-06-26T07:40:12.936Z,26.15
2019-06-26T07:42:38.800Z,23.65
2019-06-26T07:45:05.270Z,23.85
2019-06-26T07:47:42.698Z,25.32
2019-06-26T07:49:58.887Z,25.30
2019-06-26T07:52:24.761Z,23.80
2019-06-26T07:54:50.598Z,25.43
2019-06-26T07:57:16.440Z,23.00
2019-06-26T07:59:42.317Z,24.95
2019-06-26T08:02:08.259Z,25.32
2019-06-26T08:04:34.040Z,26.27
2019-06-26T08:06:59.866Z,24.77
2019-06-26T08:09:25.721Z,22.52
2019-06-26T08:11:51.602Z,24.50
2019-06-26T08:14:17.450Z,25.10
2019-06-26T08:16:43.308Z,23.40
2019-06-26T08:19:09.179Z,24.85
2019-06-26T08:21:35.030Z,26.48
2019-06-26T08:24:00.875Z,29.05
2019-06-26T08:26:26.744Z,27.07
2019-06-26T08:28:52.650Z,27.27
2019-06-26T08:31:18.504Z,27.85
2019-06-26T08:33:44.380Z,26.85
2019-06-26T08:36:10.230Z,26.90
2019-06-26T08:38:36.038Z,30.30
2019-06-26T08:41:01.892Z,30.48
2019-06-26T08:43:31.090Z,28.17
2019-06-26T08:45:55.490Z,27.22
2019-06-26T08:48:38.442Z,28.60
2019-06-26T08:50:49.205Z,27.10
2019-06-26T08:53:15.406Z,28.00
2019-06-26T08:55:41.277Z,26.27
2019-06-26T08:58:07.247Z,27.07
2019-06-26T09:00:33.118Z,27.20
2019-06-26T09:02:58.981Z,25.90
2019-06-26T09:05:24.865Z,25.35
2019-06-26T09:07:50.788Z,26.23
2019-06-26T09:10:17.191Z,26.05
2019-06-26T09:12:43.061Z,25.35
2019-06-26T09:15:09.330Z,26.40
2019-06-26T09:17:35.307Z,27.07
2019-06-26T09:20:02.085Z,27.50
2019-06-26T09:22:28.000Z,27.75
2019-06-26T09:24:53.854Z,27.02
2019-06-26T09:27:19.753Z,26.57
2019-06-26T09:29:45.604Z,29.02
2019-06-26T09:32:11.472Z,31.68
2019-06-26T09:34:37.328Z,29.77
2019-06-26T09:37:03.156Z,30.48
2019-06-26T09:39:29.061Z,33.30
2019-06-26T09:41:54.901Z,32.67
2019-06-26T09:44:20.774Z,33.53
2019-06-26T09:46:46.640Z,33.23
2019-06-26T09:49:12.543Z,32.78
2019-06-26T09:51:38.372Z,36.93
2019-06-26T09:54:04.266Z,38.88
2019-06-26T09:56:30.349Z,36.17
2019-06-26T09:58:56.416Z,36.50
2019-06-26T10:01:22.386Z,39.58
2019-06-26T10:03:48.285Z,37.30
2019-06-26T10:06:14.120Z,36.85
2019-06-26T10:08:39.978Z,38.05
2019-06-26T10:11:06.026Z,38.50
2019-06-26T10:13:31.961Z,38.17
2019-06-26T10:16:00.415Z,35.60
2019-06-26T10:18:25.540Z,37.63
2019-06-26T10:20:51.387Z,38.28
2019-06-26T10:23:17.254Z,36.35
2019-06-26T10:25:43.249Z,37.50
2019-06-26T10:28:09.100Z,37.17
2019-06-26T10:30:35.016Z,36.55
2019-06-26T10:33:00.982Z,38.28
2019-06-26T10:35:26.878Z,37.10
2019-06-26T10:37:52.775Z,36.88
2019-06-26T10:40:19.116Z,35.58
2019-06-26T10:42:44.971Z,35.92
2019-06-26T10:45:11.133Z,35.73
2019-06-26T10:47:40.248Z,35.80
2019-06-26T10:50:06.833Z,36.30
2019-06-26T10:52:33.339Z,32.95
2019-06-26T10:54:59.197Z,34.88
2019-06-26T10:57:25.053Z,34.20
2019-06-26T10:59:55.715Z,32.90
2019-06-26T11:02:20.998Z,31.35
2019-06-26T11:04:47.264Z,31.85
2019-06-26T11:07:13.185Z,29.52
2019-06-26T11:09:39.057Z,31.30
2019-06-26T11:12:04.891Z,30.95
2019-06-26T11:14:30.748Z,27.87
2019-06-26T11:16:59.337Z,29.63
2019-06-26T11:19:25.186Z,24.87
2019-06-26T11:21:51.040Z,24.32
2019-06-26T11:24:17.027Z,25.80
2019-06-26T11:26:42.978Z,24.82
2019-06-26T11:29:08.856Z,26.15
2019-06-26T11:31:34.728Z,27.75
2019-06-26T11:34:01.683Z,25.00
2019-06-26T11:36:27.542Z,26.73
2019-06-26T11:38:53.389Z,25.23
2019-06-26T11:41:19.244Z,23.52
2019-06-26T11:43:45.100Z,23.87
2019-06-26T11:46:10.991Z,24.65
2019-06-26T11:48:36.918Z,25.82
2019-06-26T11:51:03.006Z,22.98
2019-06-26T11:53:33.301Z,22.00
2019-06-26T11:55:59.497Z,23.27
2019-06-26T11:58:25.344Z,23.22
2019-06-26T12:00:51.757Z,19.77
2019-06-26T12:03:17.638Z,19.60
2019-06-26T12:05:43.504Z,21.77
2019-06-26T12:08:09.602Z,21.60
2019-06-26T12:10:35.477Z,21.07
2019-06-26T12:13:04.092Z,18.73
2019-06-26T12:15:29.501Z,19.90
2019-06-26T12:17:55.368Z,20.35
2019-06-26T12:20:21.434Z,19.05
2019-06-26T12:22:47.285Z,18.30
2019-06-26T12:25:13.366Z,17.62
2019-06-26T12:27:39.221Z,16.10
2019-06-26T12:30:05.995Z,17.17
2019-06-26T12:32:41.514Z,16.65
2019-06-26T12:34:59.658Z,16.65
2019-06-26T12:37:36.875Z,15.65
2019-06-26T12:39:53.284Z,14.60
2019-06-26T12:42:19.194Z,13.08
2019-06-26T12:44:45.046Z,12.95
2019-06-26T12:47:10.893Z,13.10
2019-06-26T12:49:36.776Z,13.62
2019-06-26T12:52:03.230Z,12.75
2019-06-26T12:54:29.091Z,13.53
2019-06-26T12:56:54.972Z,13.00
2019-06-26T12:59:20.854Z,13.28
2019-06-26T13:01:46.712Z,12.55
2019-06-26T13:04:12.624Z,13.43
2019-06-26T13:06:38.450Z,12.33
2019-06-26T13:09:06.105Z,12.03
2019-06-26T13:11:31.974Z,12.00
2019-06-26T13:14:02.756Z,11.55
2019-06-26T13:16:25.606Z,10.45
2019-06-26T13:18:51.474Z,11.75
2019-06-26T13:21:17.336Z,10.03
2019-06-26T13:23:43.232Z,10.78
2019-06-26T13:26:09.074Z,11.40
2019-06-26T13:28:34.930Z,11.22
2019-06-26T13:31:00.836Z,11.95
2019-06-26T13:33:26.692Z,11.00
2019-06-26T13:35:52.560Z,17.82
2019-06-26T13:38:18.411Z,13.30
2019-06-26T13:40:44.276Z,12.40
2019-06-26T13:43:10.162Z,11.73
2019-06-26T13:45:36.010Z,10.60
2019-06-26T13:48:01.950Z,9.88
2019-06-26T13:50:27.949Z,10.98
2019-06-26T13:52:53.796Z,9.93
2019-06-26T13:55:19.676Z,9.40
2019-06-26T13:57:45.541Z,9.85
2019-06-26T14:00:11.942Z,8.38
2019-06-26T14:02:37.762Z,8.70
2019-06-26T14:05:07.830Z,9.43
2019-06-26T14:07:36.412Z,8.13
2019-06-26T14:10:04.261Z,8.03
2019-06-26T14:12:30.161Z,8.78
2019-06-26T14:14:58.037Z,7.50
2019-06-26T14:17:23.859Z,8.25
2019-06-26T14:19:49.729Z,7.70
2019-06-26T14:22:15.584Z,7.40
2019-06-26T14:24:41.434Z,6.78
2019-06-26T14:27:07.307Z,6.67
2019-06-26T14:29:33.300Z,6.30
2019-06-26T14:31:59.165Z,5.78
2019-06-26T14:34:27.977Z,6.20
2019-06-26T14:36:53.743Z,5.83
2019-06-26T14:39:19.593Z,6.03
2019-06-26T14:41:45.575Z,5.72
2019-06-26T14:44:11.437Z,5.17
2019-06-26T14:46:37.275Z,5.78
2019-06-26T14:49:03.161Z,4.67
2019-06-26T14:51:43.498Z,5.22
2019-06-26T14:53:56.742Z,5.28
2019-06-26T14:56:22.604Z,4.87
2019-06-26T14:58:48.446Z,4.35
2019-06-26T15:01:14.402Z,4.97
2019-06-26T15:03:40.268Z,4.28
2019-06-26T15:06:15.754Z,4.25
2019-06-26T15:08:33.877Z,3.30
2019-06-26T15:10:59.811Z,3.37
2019-06-26T15:13:25.679Z,3.30
2019-06-26T15:15:54.652Z,3.45
2019-06-26T15:18:19.307Z,2.60
2019-06-26T15:20:45.190Z,2.20
2019-06-26T15:23:11.090Z,2.47
2019-06-26T15:25:36.938Z,2.50
2019-06-26T15:28:02.825Z,2.52
2019-06-26T15:30:28.779Z,3.05
2019-06-26T15:32:54.651Z,2.75
2019-06-26T15:35:20.524Z,3.10
2019-06-26T15:37:46.489Z,6.22
2019-06-26T15:40:13.891Z,4.22
2019-06-26T15:42:40.252Z,3.08
2019-06-26T15:45:07.919Z,2.50
2019-06-26T15:47:35.726Z,2.60
2019-06-26T15:50:04.083Z,2.62
2019-06-26T15:52:31.565Z,2.17
2019-06-26T15:54:57.622Z,2.33
2019-06-26T15:57:23.494Z,1.82
2019-06-26T15:59:49.364Z,2.55
2019-06-26T16:02:15.324Z,2.15
2019-06-26T16:04:41.177Z,2.30
2019-06-26T16:07:07.055Z,2.83
2019-06-26T16:09:32.907Z,3.55
2019-06-26T16:11:59.085Z,5.53
2019-06-26T16:14:25.087Z,6.95
2019-06-26T16:16:52.913Z,7.90
2019-06-26T16:19:23.464Z,14.65
2019-06-26T16:21:49.315Z,9.78
2019-06-26T16:24:15.166Z,8.65
2019-06-26T16:26:41.073Z,5.87
2019-06-26T16:29:06.931Z,4.20
2019-06-26T16:31:32.827Z,3.08
2019-06-26T16:33:58.752Z,3.02
2019-06-26T16:36:24.646Z,2.80
2019-06-26T16:38:50.547Z,2.17
2019-06-26T16:41:16.490Z,2.00
2019-06-26T16:43:42.373Z,2.35
2019-06-26T16:46:08.193Z,1.95
2019-06-26T16:48:34.054Z,2.55
2019-06-26T16:50:59.908Z,2.40
2019-06-26T16:53:25.769Z,1.60
2019-06-26T16:55:53.129Z,1.87
2019-06-26T16:58:19.018Z,1.90
2019-06-26T17:00:44.912Z,1.60
2019-06-26T17:03:11.347Z,1.47
2019-06-26T17:05:37.234Z,1.60
2019-06-26T17:08:03.313Z,1.67
2019-06-26T17:10:29.172Z,1.40
2019-06-26T17:12:55.049Z,1.10
2019-06-26T17:15:21.028Z,1.42
2019-06-26T17:17:46.986Z,1.40
2019-06-26T17:20:14.992Z,1.32
2019-06-26T17:22:40.840Z,1.50
2019-06-26T17:25:07.190Z,1.17
2019-06-26T17:27:33.164Z,1.22
2019-06-26T17:29:59.086Z,1.20
2019-06-26T17:32:25.069Z,1.40
2019-06-26T17:34:50.952Z,1.35
2019-06-26T17:37:16.894Z,1.32
2019-06-26T17:39:42.834Z,1.20
2019-06-26T17:42:08.708Z,1.32
2019-06-26T17:44:34.553Z,1.60
2019-06-26T17:47:00.407Z,1.50
2019-06-26T17:49:26.288Z,1.40
2019-06-26T17:51:52.135Z,1.67
2019-06-26T17:54:18.006Z,2.42
2019-06-26T17:56:43.862Z,1.47
2019-06-26T17:59:09.716Z,1.77
2019-06-26T18:01:35.584Z,6.65
2019-06-26T18:04:01.442Z,18.67
2019-06-26T18:06:27.302Z,3.62
2019-06-26T18:08:53.157Z,2.60
2019-06-26T18:11:19.019Z,1.55
2019-06-26T18:13:44.880Z,2.00
2019-06-26T18:16:10.744Z,2.17
2019-06-26T18:18:36.840Z,1.40
2019-06-26T18:21:02.989Z,1.92
2019-06-26T18:23:37.785Z,1.67
2019-06-26T18:26:12.369Z,1.52
2019-06-26T18:28:27.857Z,1.80
2019-06-26T18:30:53.854Z,1.47
2019-06-26T18:33:19.709Z,1.62
2019-06-26T18:35:45.560Z,11.75
2019-06-26T18:38:11.441Z,4.58
2019-06-26T18:40:37.301Z,2.10
2019-06-26T18:43:03.396Z,1.90
2019-06-26T18:45:32.215Z,2.83
2019-06-26T18:47:58.066Z,1.67
2019-06-26T18:50:24.464Z,1.85
2019-06-26T18:52:52.270Z,1.55
2019-06-26T18:55:20.029Z,1.85
2019-06-26T18:57:45.909Z,1.62
2019-06-26T19:00:12.509Z,2.30
2019-06-26T19:02:38.402Z,1.98
2019-06-26T19:05:07.005Z,2.08
2019-06-26T19:07:33.031Z,1.87
2019-06-26T19:09:58.949Z,2.02
2019-06-26T19:12:25.177Z,2.95
2019-06-26T19:14:51.069Z,2.22
2019-06-26T19:17:17.175Z,2.15
2019-06-26T19:19:43.060Z,2.00
2019-06-26T19:22:08.953Z,2.27
2019-06-26T19:24:34.812Z,1.92
2019-06-26T19:27:00.696Z,1.87
2019-06-26T19:29:26.558Z,2.30
2019-06-26T19:31:55.467Z,1.98
2019-06-26T19:34:21.345Z,1.75
2019-06-26T19:36:50.522Z,2.00
2019-06-26T19:39:15.085Z,1.82
2019-06-26T19:41:40.955Z,2.55
2019-06-26T19:44:08.982Z,2.25
2019-06-26T19:46:34.750Z,2.20
2019-06-26T19:49:00.626Z,2.05
2019-06-26T19:51:26.919Z,1.90
2019-06-26T19:53:52.814Z,3.02
2019-06-26T19:56:20.214Z,1.95
2019-06-26T19:58:46.326Z,2.00
2019-06-26T20:01:12.216Z,1.50
2019-06-26T20:03:38.153Z,2.35
2019-06-26T20:06:04.217Z,1.90
2019-06-26T20:08:30.086Z,2.05
2019-06-26T20:10:55.934Z,2.35
2019-06-26T20:13:21.811Z,2.15
2019-06-26T20:15:47.663Z,2.90
2019-06-26T20:18:13.525Z,2.33
2019-06-26T20:20:39.407Z,1.98
2019-06-26T20:23:05.252Z,2.67
2019-06-26T20:25:31.102Z,2.17
2019-06-26T20:27:57.435Z,2.33
2019-06-26T20:30:27.079Z,2.00
2019-06-26T20:32:52.934Z,1.90
2019-06-26T20:35:18.804Z,1.75
2019-06-26T20:37:44.673Z,2.37
2019-06-26T20:40:10.855Z,2.52
2019-06-26T20:42:36.738Z,2.20
2019-06-26T20:45:04.109Z,2.25
2019-06-26T20:47:29.961Z,2.27
2019-06-26T20:49:55.861Z,2.42
2019-06-26T20:52:21.842Z,2.87
2019-06-26T20:55:00.617Z,2.15
2019-06-26T20:57:16.322Z,2.45
2019-06-26T20:59:42.189Z,2.72
2019-06-26T21:02:08.090Z,2.10
2019-06-26T21:04:33.986Z,2.65
2019-06-26T21:06:59.904Z,2.45
2019-06-26T21:09:25.841Z,2.15
2019-06-26T21:11:51.758Z,1.87
2019-06-26T21:14:17.738Z,2.30
2019-06-26T21:16:43.592Z,1.65
2019-06-26T21:19:09.456Z,2.27
2019-06-26T21:21:35.496Z,2.10
2019-06-26T21:24:01.337Z,2.27
2019-06-26T21:26:27.217Z,2.98
2019-06-26T21:28:53.093Z,2.45
2019-06-26T21:31:18.938Z,2.45
2019-06-26T21:33:44.815Z,2.10
2019-06-26T21:36:10.855Z,2.05
2019-06-26T21:38:36.848Z,2.00
2019-06-26T21:41:02.808Z,2.87
2019-06-26T21:43:29.588Z,2.67
2019-06-26T21:45:55.452Z,2.50
2019-06-26T21:48:21.324Z,2.27
2019-06-26T21:50:47.192Z,2.67
2019-06-26T21:53:13.073Z,2.10
2019-06-26T21:55:39.875Z,2.42
2019-06-26T21:58:05.862Z,2.50
2019-06-26T22:00:33.634Z,2.90
2019-06-26T22:02:59.486Z,2.65
2019-06-26T22:05:25.763Z,2.15
2019-06-26T22:07:51.631Z,1.90
2019-06-26T22:10:17.480Z,2.60
2019-06-26T22:12:43.325Z,2.42
2019-06-26T22:15:09.999Z,2.00
2019-06-26T22:17:35.841Z,2.42
2019-06-26T22:20:07.971Z,2.00
2019-06-26T22:22:32.266Z,2.15
2019-06-26T22:24:58.190Z,3.20
2019-06-26T22:27:24.012Z,2.10
2019-06-26T22:29:49.936Z,2.37
2019-06-26T22:32:15.793Z,2.10
2019-06-26T22:34:41.808Z,2.40
2019-06-26T22:37:07.744Z,2.37
2019-06-26T22:39:33.612Z,2.72
2019-06-26T22:41:59.463Z,3.45
2019-06-26T22:44:25.350Z,2.83
2019-06-26T22:46:51.218Z,3.40
2019-06-26T22:49:17.061Z,2.77
2019-06-26T22:51:42.971Z,3.42
2019-06-26T22:54:08.814Z,3.75
2019-06-26T22:56:34.668Z,2.98
2019-06-26T22:59:00.595Z,2.87
2019-06-26T23:01:26.469Z,3.52
2019-06-26T23:03:52.317Z,3.17
2019-06-26T23:06:18.226Z,4.33
2019-06-26T23:08:44.197Z,3.05
2019-06-26T23:11:10.057Z,3.17
2019-06-26T23:13:35.921Z,3.98
2019-06-26T23:16:01.847Z,3.37
2019-06-26T23:18:27.665Z,3.35
2019-06-26T23:20:53.525Z,3.50
2019-06-26T23:23:19.536Z,3.58
2019-06-26T23:25:45.386Z,3.67
2019-06-26T23:28:11.265Z,3.50
2019-06-26T23:30:37.133Z,3.50
2019-06-26T23:33:03.010Z,3.47
2019-06-26T23:35:28.862Z,3.77
2019-06-26T23:37:54.956Z,3.12
2019-06-26T23:40:21.132Z,3.67
2019-06-26T23:42:46.989Z,3.70
2019-06-26T23:45:13.057Z,3.10
2019-06-26T23:47:39.107Z,3.52
2019-06-26T23:50:08.835Z,3.50
2019-06-26T23:52:34.719Z,3.22
2019-06-26T23:55:00.622Z,3.30
2019-06-26T23:57:26.606Z,3.45
2019-06-26T23:59:53.192Z,3.77
